طرابلس, ليبيا

06:43 PM EET on أمتèبر 21, 2014 (GMT +0200)
Mitiga | Change Station
CLOSE
Current Station
Airport
Location: MITIGA,
Elevation: 36 ft
Nearby Weather Stations

Elev 36 ft 32.89 °N, 13.28 °E | Updated 48 minutes ago

Scattered Clouds
غيوم متفرقة
77 °F
Feels Like 77 °F
N
6
ريح متغير ريح from شمال

هذا اليوم
High -- | Low -- °F
--% Chance of Precip.
Yesterday
High -- | Low -- °F
Precip. -- في
7:15 AM 6:27 PM
الهلال الأخير, 5% visible
الضغط 30.04 في
وضوح الرؤية 6.2 أميال
سحابات Few 2500 ft
غيوم متفرقة 7000 ft
نقطة الندى 64 °F
الرطوبة 65%
Rainfall 0.00 في
عمق الثلج Not available.
الأشعة فوق البنفسجية 0 out of 12
Pollen Not available.
جودة الهواء Not available.
Flu Activity Not available.
METAR HLLM 211555Z 35005KT 320V030 9999 FEW025 SCT070 25/18 Q1017

More Conditions Fewer Conditions

الضغط 30.04 في
وضوح الرؤية 6.2 أميال
سحابات Few 2500 ft
غيوم متفرقة 7000 ft
نقطة الندى 64 °F
الرطوبة 65%
Rainfall 0.00 في
عمق الثلج Not available.
الأشعة فوق البنفسجية 0 out of 12
Pollen Not available.
جودة الهواء Not available.
Flu Activity Not available.
METAR HLLM 211555Z 35005KT 320V030 9999 FEW025 SCT070 25/18 Q1017

More Conditions Fewer Conditions

10-Day Weather Forecast

Almanac

علم الفلك

Oct. 21, 2014 Rise Set
Actual Time 7:15 AM EET 6:27 PM EET
Civil Twilight 6:50 AM EET 6:52 PM EET
Nautical Twilight 6:22 AM EET 7:21 PM EET
Astronomical Twilight 5:53 AM EET 7:50 PM EET
قمر 4:51 AM EET 5:06 PM EET
Length Of Visible Light 12h 02m
طول الیوم
11h 12m
Tomorrow will be 1m 52s shorter.
الهلال الأخير, 5% of the Moon is Illuminated
هذا اليوم
الهلال الأخير
Oct 23
New
Oct 30
الربع الاول
Nov 6
بدر
Nov 14
الربع الآخر

Today's Extremes

Country Highs Country Lows

Community

WunderPhotos

Upload Photos

1,763,712 photos uploaded!

Nearby

جودة الهواء

Not available.

عمق الثلج

Not available.

Earthquake Activity

City Distance Mag. Time & Date
No recent earthquake activity has been reported nearby.
Minimum magnitude displayed is 2.5.

Coastal Water Temperatures

مكان درجات الحرارة
No Stations Reporting

Nearby Weather Stations